Pagina principale
METAR-TAF:

METAR-TAF

Aeroporti :

Albert, Francia

latitudine: 49-58-21N, longitudine: 002-41-29E, altezza: 111 m

Osservazione

Il bollettino è stato emesso 14 minuti fa, alle 05:00 UTC
Vento 10 kt da nord/nord-est
Temperature -1°C
Umidità 74%
Pressione 1032 hPa
Visibilità 10 km o più
nessuna nube inferiore a 1500 m e nessun cumulonembo

METAR: LFAQ 300500Z AUTO 03010KT CAVOK M01/M05 Q1032

Ora: 07:14 (05:14 UTC)

Previsione

Il bollettino è stato emesso 15 ore e 14 minuti fa, alle 14:00 UTC
Previsione valida dal 29 alle 15 UTC al 29 alle 24 UTC
Vento 25 kt da nord-est con raffiche fino a 37 kt
Visibilità 10 km o più
Nubi sparse ad un'altezza di 4000 ft
Evoluzione graduale
dal 29 alle 21 UTC al 29 alle 24 UTC
Vento 15 kt da nord-est con raffiche fino a 25 kt

TAF: LFAQ 291400Z 2915/2924 04025G37KT 9999 SCT040 BECMG 2921/2924 04015G25KT

Osservazioni e previsioni meteorologiche di più di 4000 aeroporti (messaggi METAR e TAF).

Le stazioni disponibili sono rappresentate dai dischi gialli e rossi sulla carta.

Puntare il mouse per vedere il nome della stazione.

Clicca sopra per visualizzare le osservazioni e previsioni meteorologiche.

Per cambiare la mappa : fare clic sui pulsanti verdi con una croce nera per ingrandire, il pulsante verde con un trattino per diminuire, o sulla freccia verde per le mappe adiacenti.


METAR-TAF: